Date,TemperatureHighF,TemperatureAvgF,TemperatureLowF,DewpointHighF,DewpointAvgF,DewpointLowF,HumidityHigh,HumidityAvg,HumidityLow,PressureMaxIn,PressureMinIn,WindSpeedMaxMPH,WindSpeedAvgMPH,GustSpeedMaxMPH,PrecipitationSumIn
2013-1-1,43,20,5,22,9,0,78,63,41,25.40,25.25,10,1,10,0.00
2013-1-2,42,18,4,20,6,-4,71,60,39,25.42,25.27,9,1,9,0.00
2013-1-3,46,21,4,20,6,-5,70,54,32,25.50,25.38,13,2,13,0.00
2013-1-4,45,19,4,19,5,-4,69,56,35,25.49,25.31,9,1,9,0.00
2013-1-5,47,20,4,20,6,-3,72,56,32,25.54,25.41,7,1,7,0.00
2013-1-6,24,10,7,12,2,-1,72,69,63,25.55,25.44,10,2,13,0.00
2013-1-17,56,30,21,22,11,6,62,48,27,25.54,25.49,6,1,6,0.00
2013-1-18,58,27,10,27,12,2,74,56,29,25.56,25.39,8,1,8,0.00
2013-1-19,59,26,10,27,12,3,75,58,27,25.57,25.43,6,1,6,0.00
2013-1-20,54,27,10,25,12,3,72,56,32,25.54,25.35,10,1,10,0.00
2013-1-21,57,30,12,27,14,4,72,54,30,25.51,25.38,9,1,9,0.00
2013-1-22,64,30,14,29,15,7,74,56,25,25.53,25.39,9,1,9,0.00
2013-1-23,58,31,14,26,15,4,67,52,29,25.58,25.43,11,2,11,0.00
2013-1-24,53,38,29,31,24,18,77,56,36,25.48,25.38,6,0,6,0.00
2013-1-25,53,42,37,43,36,31,86,78,66,25.45,25.32,11,1,11,0.00
2013-1-26,44,41,38,40,37,34,90,86,78,25.33,25.05,14,2,14,0.00
2013-1-27,62,44,39,47,38,33,91,79,53,25.15,25.01,9,1,9,0.00
2013-1-28,44,37,28,35,31,21,88,79,58,25.04,24.96,13,2,13,0.00
2013-1-29,41,28,21,21,16,11,77,62,44,25.24,25.00,13,3,13,0.00
2013-1-30,47,30,17,26,19,12,81,64,42,25.37,25.25,11,2,11,0.00
2013-1-31,62,37,23,36,25,18,84,64,36,25.45,25.34,11,1,11,0.00
2013-2-1,63,38,26,33,23,18,75,57,30,25.49,25.34,13,2,13,0.00
2013-2-2,38,26,24,23,19,18,78,75,54,25.53,25.49,8,0,9,0.00
2013-2-10,30,29,28,24,24,23,82,80,79,29.78,29.75,1,0,25,0.00
2013-2-11,47,31,20,27,22,11,80,69,42,29.90,29.79,6,2,9,0.00
2013-2-12,7,7,7,1,1,1,78,76,75,29.96,29.94,0,0,7,0.00
2013-3-3,52,50,47,30,26,24,46,40,35,29.78,29.76,10,2,10,0.00
2013-3-4,64,47,35,37,26,12,76,45,24,30.02,29.75,10,2,14,0.00
2013-3-5,71,46,29,23,16,10,57,34,15,30.12,29.98,15,4,18,0.00
2013-3-6,74,54,41,26,19,14,41,26,13,29.98,29.81,15,5,17,0.00
2013-3-7,75,53,34,24,18,9,53,29,13,29.91,29.78,11,3,13,0.00
2013-3-8,51,42,35,37,28,13,87,63,22,29.84,29.64,18,4,19,0.00
2013-3-9,41,35,31,33,29,24,86,78,71,29.91,29.64,13,1,19,0.00
2013-3-10,62,39,23,29,23,17,81,56,25,30.07,29.91,13,2,20,0.00
2013-3-11,52,32,25,29,22,18,77,65,40,30.06,30.02,10,1,12,0.00
2013-3-13,77,58,40,31,26,24,54,32,18,30.18,30.12,6,1,15,0.00
2013-3-14,82,55,37,34,27,23,57,38,17,30.21,30.10,12,3,12,0.00
2013-3-15,77,57,40,33,26,23,53,34,17,30.12,29.87,13,3,15,0.00
2013-3-16,73,54,40,37,29,24,57,40,24,29.87,29.75,13,2,15,0.00
2013-3-17,68,51,38,34,24,12,66,40,16,29.80,29.66,19,4,22,0.00
2013-3-18,66,46,30,19,14,8,53,32,14,29.94,29.81,14,2,16,0.00
2013-3-19,70,50,38,23,16,11,42,28,14,30.05,29.88,11,3,19,0.00
2013-3-20,61,48,32,30,19,11,44,34,23,30.05,29.77,12,3,15,0.00
2013-3-21,68,52,38,32,19,-2,59,32,12,29.76,29.64,17,4,20,0.00
2013-3-22,66,45,28,15,7,-1,39,23,10,29.76,29.54,20,5,21,0.00
2013-3-23,49,35,26,7,-1,-9,32,22,12,29.95,29.69,18,5,19,0.00
2013-3-24,53,35,18,10,4,-1,46,29,15,29.97,29.85,17,4,17,0.00
2013-3-25,31,25,22,4,2,1,45,38,28,29.99,29.94,8,2,10,0.00
2013-4-10,59,48,34,26,19,14,52,33,23,29.89,29.81,15,4,23,0.00
2013-4-11,62,46,28,40,31,14,72,56,41,29.89,29.77,8,2,10,0.00
2013-4-12,75,53,34,36,29,20,71,45,18,29.85,29.76,11,2,12,0.00
2013-4-13,73,56,34,26,21,17,50,28,16,29.84,29.51,16,4,20,0.00
2013-4-14,71,58,49,33,26,21,51,31,18,29.70,29.54,21,4,21,0.00
2013-4-15,75,62,52,30,26,17,39,27,15,29.61,29.50,18,5,21,0.00
2013-4-16,71,58,43,26,23,17,41,27,15,29.67,29.53,19,4,21,0.00
2013-4-17,48,40,30,35,23,13,78,53,34,29.93,29.64,14,3,20,0.00
2013-4-18,54,36,21,19,11,4,61,38,16,30.10,29.92,14,3,16,0.00
2013-4-19,64,42,22,19,12,5,49,31,16,30.12,29.90,12,2,15,0.00
2013-4-20,67,52,36,35,24,13,51,35,23,29.95,29.85,15,4,28,0.00
2013-4-21,75,53,32,30,23,19,64,36,15,30.02,29.88,11,3,14,0.00
2013-4-22,78,60,37,28,21,15,49,25,12,29.89,29.66,21,4,25,0.00
2013-4-23,65,52,35,24,15,1,43,26,11,29.97,29.74,14,4,20,0.00
2013-4-24,75,52,31,15,7,0,29,18,10,29.99,29.91,12,4,12,0.00
2013-4-25,77,58,39,25,18,9,33,22,14,29.94,29.80,12,3,18,0.00
2013-4-26,79,59,42,32,23,13,49,28,11,30.08,29.89,12,2,13,0.00
2013-4-27,82,60,39,26,18,12,40,23,10,30.11,29.97,15,4,15,0.00
2013-4-28,86,63,42,25,19,11,32,20,10,30.00,29.83,14,4,14,0.00
2013-4-29,88,66,47,29,22,16,34,21,10,29.86,29.68,16,3,16,0.00
2013-4-30,85,64,46,100,29,12,36,18,10,29.73,29.61,22,5,114,0.00
2013-5-1,70,56,45,100,42,-6,44,18,10,30.14,29.68,20,5,114,0.00
2013-5-2,73,40,38,100,35,2,32,16,10,30.30,30.14,13,4,114,0.00
2013-5-3,78,45,35,100,30,5,32,18,10,30.17,29.86,12,3,114,0.00
2013-5-4,85,57,41,100,29,8,30,15,10,29.86,29.73,11,4,114,0.00
2013-5-5,74,53,59,100,30,9,27,14,12,29.90,29.76,21,5,114,0.00
2013-5-6,67,56,48,47,38,26,77,53,27,29.94,29.84,12,3,14,0.00
2013-5-7,74,57,46,46,40,33,77,57,24,29.94,29.80,13,3,16,0.00
2013-5-8,66,52,44,39,36,32,76,55,32,29.97,29.84,9,2,14,0.00
2013-5-9,68,53,44,45,39,34,73,60,38,30.03,29.93,11,2,13,0.00
2013-5-10,72,53,42,48,40,34,78,64,33,30.15,30.00,12,3,13,0.00
2013-5-11,77,60,43,47,39,34,75,50,25,30.22,30.12,18,3,18,0.00
2013-5-12,83,64,46,40,36,33,64,39,19,30.20,30.02,12,3,12,0.00
2013-5-13,92,70,50,100,36,32,48,30,14,30.14,29.99,12,4,114,0.00
2013-5-14,90,58,54,100,48,34,49,26,15,30.00,29.86,22,4,114,0.00
2013-5-15,177,21,21,100,81,3,48,10,19,29.92,29.77,14,1,114,0.00
2013-5-16,177,0,177,100,100,100,0,0,100,29.91,29.75,0,0,0,5.20
2013-5-17,177,0,177,100,100,100,0,0,100,29.88,29.78,0,0,0,5.20
2013-5-18,177,19,54,100,80,28,43,9,20,29.90,29.79,11,1,114,0.00
2013-5-19,77,54,42,100,37,26,62,33,17,29.89,29.78,14,2,114,0.00
2013-5-20,72,54,17,100,39,-3,50,34,25,29.94,29.83,13,3,114,0.00
2013-5-21,84,52,42,100,47,27,64,26,16,29.97,29.81,14,2,114,0.00
2013-5-22,88,69,51,100,28,18,40,23,10,29.84,29.68,13,4,114,0.00
2013-5-23,91,75,59,100,36,14,26,13,10,29.85,29.73,19,5,19,0.00
2013-5-24,88,71,50,100,26,12,33,17,10,29.96,29.84,14,3,16,0.00
2013-5-25,92,71,48,100,33,12,32,16,10,29.97,29.82,14,3,14,0.00
2013-5-26,91,72,54,100,30,11,26,14,10,29.96,29.82,12,3,14,0.00
2013-5-27,90,70,54,100,26,14,28,15,10,29.91,29.74,15,3,15,0.00
2013-5-28,86,66,50,43,26,17,58,25,11,29.77,29.60,16,4,26,0.04
2013-5-29,80,62,44,42,34,22,77,41,14,29.76,29.66,14,3,20,0.04
2013-5-30,85,68,53,34,29,21,41,26,11,29.84,29.74,14,3,22,0.00
2013-5-31,88,67,48,100,30,9,38,19,10,29.96,29.81,15,4,16,0.00
2013-6-1,95,68,40,100,28,7,31,16,10,30.05,29.91,13,2,13,0.00
2013-6-2,98,73,51,100,29,18,30,19,10,29.97,29.77,14,4,18,0.00
2013-6-3,94,72,52,39,31,25,39,23,10,29.93,29.78,14,3,22,0.00
2013-6-4,98,75,53,100,32,24,42,23,10,29.93,29.82,16,3,16,0.00
2013-6-5,96,76,18,38,29,-6,35,20,10,29.94,29.84,15,4,17,0.00
2013-6-6,99,77,56,100,30,20,31,18,10,29.94,29.83,13,4,16,0.00
2013-6-7,96,75,56,39,31,22,35,22,10,29.95,29.81,14,3,16,0.00
2013-6-8,103,78,56,100,43,24,41,20,10,29.89,29.79,16,3,16,0.00
2013-6-9,105,81,60,100,36,26,32,19,10,29.95,29.86,15,3,15,0.00
2013-6-10,101,81,59,100,39,21,32,16,10,29.96,29.84,15,3,15,0.00
2013-6-11,99,79,62,100,26,15,25,13,10,29.98,29.90,13,3,18,0.00
2013-6-12,101,80,59,100,38,22,29,15,10,30.04,29.95,13,3,13,0.00
2013-6-13,96,80,62,41,32,26,35,19,10,30.00,29.85,15,2,16,0.00
2013-6-14,98,80,56,100,37,16,36,15,10,29.96,29.83,12,2,17,0.00
2013-6-15,93,73,56,41,29,13,32,21,13,30.00,29.88,20,4,20,0.00
2013-6-16,98,78,62,46,38,28,42,26,12,30.05,29.91,18,4,18,0.00
2013-6-17,99,77,58,100,40,23,34,19,10,30.00,29.88,15,3,15,0.00
2013-6-18,98,77,60,100,42,14,29,16,10,29.95,29.81,21,4,21,0.00
2013-6-19,98,77,56,100,51,16,30,11,10,29.85,29.73,12,2,14,0.00
2013-6-20,98,77,56,100,38,15,27,13,10,29.90,29.79,9,2,10,0.00
2013-6-21,95,78,60,100,38,17,26,13,10,29.93,29.82,8,2,10,0.00
2013-6-22,96,74,55,100,35,21,29,17,10,29.91,29.81,11,2,16,0.00
2013-6-23,97,76,56,100,37,14,26,14,10,29.88,29.75,13,3,17,0.00
2013-6-24,89,77,61,29,21,14,23,13,10,29.89,29.78,14,3,14,0.00
2013-6-25,98,78,62,39,29,16,29,17,12,29.99,29.88,8,1,14,0.00
2013-6-26,104,79,58,42,36,30,40,23,10,30.07,29.96,13,2,13,0.00
2013-6-27,107,83,64,42,38,34,34,22,10,30.11,30.00,15,2,15,0.00
2013-6-28,106,87,68,54,41,36,31,21,13,30.11,29.96,14,2,19,0.00
2013-6-29,104,85,69,50,43,40,35,25,13,30.09,29.91,16,4,18,0.00
2013-6-30,101,84,69,53,46,42,41,29,16,30.05,29.88,15,4,16,0.00
2013-7-1,104,85,71,51,45,34,43,27,12,30.10,29.92,22,5,22,0.00
2013-7-2,99,83,70,51,46,38,45,29,15,30.09,29.88,21,5,21,0.00
2013-7-3,104,83,68,52,45,33,47,28,12,30.02,29.81,17,4,18,0.00
2013-7-4,100,82,66,50,45,40,46,29,17,29.94,29.81,9,2,13,0.00
2013-7-5,100,84,70,52,47,43,50,29,18,29.93,29.78,13,3,14,0.00
2013-7-6,98,80,68,53,48,43,52,34,19,29.99,29.86,15,3,16,0.00
2013-7-7,103,83,65,53,48,43,54,32,17,30.01,29.88,11,3,13,0.00
2013-7-8,103,82,71,53,48,42,50,32,15,30.08,29.97,10,2,12,0.00
2013-7-9,103,86,68,52,45,38,45,27,14,30.13,29.99,13,3,15,0.00
2013-7-10,107,87,68,52,44,34,39,24,10,30.07,29.91,19,4,24,0.00
2013-7-11,99,82,70,54,50,45,47,34,20,30.03,29.89,15,3,18,0.00
2013-7-12,96,78,66,58,54,50,61,44,25,30.03,29.91,12,2,15,0.00
2013-7-13,102,81,63,59,52,46,67,41,17,30.08,29.95,10,2,15,0.00
2013-7-14,101,81,69,58,53,49,61,40,20,30.06,29.89,9,2,19,0.02
2013-7-15,91,74,66,62,57,54,71,57,33,30.03,29.93,16,4,24,0.08
2013-7-16,91,75,66,60,56,53,74,53,33,30.08,29.97,15,3,21,0.04
2013-7-17,92,78,69,60,52,49,71,41,27,30.15,30.02,17,5,19,0.10
2013-7-18,95,79,67,59,54,51,71,46,25,30.15,29.96,17,3,20,0.10
2013-7-19,92,73,63,58,55,54,73,56,31,30.07,29.99,12,2,16,0.00
2013-7-20,99,82,65,62,57,52,74,47,23,30.00,29.85,15,2,27,1.00
2013-7-21,97,77,64,60,54,47,73,47,24,30.00,29.89,13,2,17,0.71
2013-7-22,101,77,63,56,53,49,67,46,19,30.03,29.89,10,3,12,0.02
2013-7-23,90,76,64,58,52,44,64,44,25,30.03,29.95,12,2,14,0.02
2013-7-24,102,81,69,56,50,42,62,37,14,30.04,29.91,19,2,28,0.00
2013-7-25,100,81,66,57,52,47,62,40,20,30.07,29.95,15,2,18,0.00
2013-7-26,105,84,68,58,49,34,51,33,10,30.12,29.97,14,4,16,0.00
2013-7-27,96,80,69,56,52,48,50,39,23,30.12,29.89,12,4,16,0.00
2013-7-28,88,70,60,67,57,51,84,64,39,29.98,29.88,12,2,15,0.53
2013-7-29,90,73,60,60,55,45,83,57,24,30.08,29.96,10,2,14,0.20
2013-7-30,100,78,61,56,49,40,65,41,15,30.18,30.08,9,2,12,0.00
2013-7-31,102,81,62,52,47,41,54,34,14,30.18,30.02,11,2,11,0.00
2013-8-1,87,77,69,56,52,46,58,42,32,30.11,29.97,13,3,14,0.00
2013-8-2,95,78,65,58,54,51,66,46,26,30.07,29.94,10,3,15,0.00
2013-8-3,99,80,66,56,52,48,62,42,20,30.10,29.98,12,3,17,0.00
2013-8-4,90,76,63,58,51,46,54,42,27,30.09,29.99,11,2,11,0.00
2013-8-5,97,77,66,58,53,49,66,45,21,30.10,29.95,15,3,18,0.00
2013-8-6,89,74,65,55,51,47,60,45,29,30.04,29.97,19,3,19,0.00
2013-8-7,78,67,61,60,55,50,83,65,46,30.05,29.96,13,1,15,0.39
2013-8-8,90,69,60,59,54,46,87,63,25,30.03,29.96,9,2,12,0.35
2013-8-9,93,73,57,49,44,38,63,39,18,30.04,29.96,16,4,21,0.02
2013-8-10,86,69,59,54,47,40,81,47,30,30.20,30.01,16,6,20,0.16
2013-8-11,96,72,53,55,48,44,71,47,18,30.14,29.99,13,2,17,0.02
2013-8-12,95,75,61,53,48,43,62,40,20,30.09,29.98,18,2,18,0.00
2013-8-13,98,77,58,52,44,38,60,35,15,30.12,29.99,16,2,16,0.00
2013-8-14,102,78,61,45,40,34,44,28,13,30.08,29.97,10,2,12,0.00
2013-8-15,101,79,60,46,39,34,39,26,10,30.08,29.98,8,2,12,0.00
2013-8-16,104,79,62,49,42,37,44,29,12,30.09,29.98,10,1,12,0.00
2013-8-17,98,79,64,50,44,38,41,31,19,30.08,29.99,17,3,17,0.00
2013-8-18,99,80,65,52,49,46,55,36,19,30.11,29.96,10,1,10,0.00
2013-8-19,101,80,66,52,49,46,50,36,18,30.07,29.94,15,4,15,0.00
2013-8-20,97,80,66,54,50,47,54,37,21,30.03,29.91,14,3,14,0.00
2013-8-21,96,77,64,56,49,45,68,40,21,30.10,29.96,15,2,16,0.02
2013-8-22,94,76,62,59,54,48,75,49,28,30.11,29.96,9,2,12,0.02
2013-8-23,90,76,62,59,49,43,59,41,21,30.02,29.88,12,3,15,0.00
2013-8-24,89,75,66,54,51,48,63,44,28,30.07,29.96,9,2,11,0.00
2013-8-25,78,68,61,60,57,53,87,70,53,30.17,30.06,11,3,14,0.73
2013-8-26,91,71,60,66,61,57,91,73,41,30.18,30.03,12,2,12,1.16
2013-8-27,89,73,62,65,60,56,86,65,38,30.10,29.99,9,1,10,0.08
2013-8-28,98,77,61,63,56,50,77,53,21,30.07,29.99,8,2,10,0.00
2013-8-29,96,77,62,59,54,51,68,48,28,30.13,30.04,12,2,16,0.00
2013-8-30,101,79,67,61,54,51,64,45,25,30.11,29.97,15,2,17,0.02
2013-8-31,98,77,61,63,57,53,76,53,28,30.06,29.92,8,1,12,0.02
2013-9-1,95,78,63,61,55,52,68,49,26,30.04,29.92,16,2,16,0.00
2013-9-2,98,80,68,58,53,48,54,41,21,30.09,29.96,18,4,20,0.00
2013-9-3,94,76,64,57,52,48,59,46,28,30.10,30.00,11,1,12,0.00
2013-9-4,102,80,65,59,54,50,61,43,20,30.12,29.99,10,2,11,0.00
2013-9-5,99,83,71,54,45,39,47,28,17,30.11,29.99,14,3,14,0.00
2013-9-6,101,80,64,48,43,37,43,29,15,30.09,29.95,13,2,17,0.00
2013-9-7,99,79,64,50,45,41,44,31,17,30.02,29.91,13,4,17,0.00
2013-9-8,86,72,63,57,52,48,62,51,37,30.01,29.91,11,2,12,0.00
2013-9-9,84,67,60,61,55,51,86,67,41,29.95,29.84,11,1,12,0.51
2013-9-10,69,63,60,60,57,54,88,81,70,30.00,29.89,12,3,14,1.14
2013-9-11,85,69,60,63,57,53,84,69,42,30.05,29.97,10,1,11,0.12
2013-9-12,82,68,59,61,54,50,74,64,47,30.08,29.94,15,3,16,0.02
2013-9-13,86,69,59,59,54,51,77,60,35,29.99,29.85,15,3,16,0.00
2013-9-14,80,69,60,59,54,50,81,58,43,29.93,29.83,14,4,16,0.04
2013-9-15,85,69,58,63,57,52,82,67,45,30.03,29.96,10,1,10,0.80
2013-9-16,93,71,60,60,54,50,76,57,30,30.07,29.97,16,4,18,0.02
2013-9-17,84,73,63,55,52,48,65,50,32,30.00,29.82,14,4,18,0.00
2013-9-18,87,73,63,58,53,50,69,51,33,29.89,29.78,13,3,20,0.02
2013-9-19,89,68,55,55,47,37,79,52,20,29.95,29.84,88,2,88,0.02
2013-9-20,93,70,51,48,41,36,58,38,19,30.02,29.85,10,2,12,0.00
2013-9-21,93,74,60,55,46,39,55,39,22,29.93,29.78,19,4,21,0.00
2013-9-22,73,62,50,56,47,37,75,59,41,29.80,29.59,18,4,18,0.24
2013-9-23,78,57,41,46,40,35,83,57,27,30.00,29.73,12,2,12,0.02
2013-9-24,89,62,44,47,38,31,65,44,20,30.05,29.78,18,3,18,0.00
2013-9-25,85,69,56,39,34,28,43,29,16,29.82,29.60,21,5,22,0.00
2013-9-26,82,69,57,45,30,25,60,25,15,29.73,29.56,17,4,18,0.04
2013-9-27,67,53,45,46,37,28,81,56,28,29.98,29.66,13,2,13,0.18
2013-9-28,77,52,35,37,30,24,72,47,18,30.12,29.98,9,1,11,0.02
2013-9-29,81,57,40,38,30,26,58,40,17,30.11,29.94,10,3,11,0.00
2013-9-30,85,61,45,37,31,27,53,35,15,29.96,29.84,10,2,12,0.00
2013-10-1,87,64,45,40,33,27,53,35,15,29.91,29.80,10,2,13,0.00
2013-10-2,87,62,44,36,30,26,52,33,14,29.93,29.73,14,3,14,0.00
2013-10-3,77,60,45,40,32,25,53,37,22,29.83,29.59,21,4,22,0.00
2013-10-4,64,46,34,30,25,22,62,46,25,30.12,29.82,11,2,18,0.00
2013-10-5,70,48,31,29,23,18,61,40,18,30.18,30.11,14,2,14,0.00
2013-10-6,77,51,32,33,23,15,55,36,17,30.21,30.07,13,2,13,0.00
2013-10-7,85,58,40,37,30,26,59,38,16,30.14,29.92,18,2,19,0.00
2013-10-8,81,62,43,36,29,24,48,31,17,29.92,29.73,16,2,64,0.00
2013-10-9,73,61,49,33,27,24,40,29,18,29.82,29.68,14,4,19,0.00
2013-10-10,63,49,42,43,38,32,85,68,32,29.85,29.65,14,3,16,0.47
2013-10-11,70,50,39,44,37,32,80,63,35,29.99,29.86,10,1,11,0.02
2013-10-12,68,51,38,40,34,31,78,56,30,30.03,29.92,15,4,16,0.00
2013-10-13,72,61,49,41,35,28,51,39,30,29.96,29.79,14,4,16,0.00
2013-10-14,68,52,40,37,32,28,70,48,31,30.00,29.86,10,2,11,0.00
2013-10-15,68,48,37,36,30,26,65,52,26,30.00,29.89,14,2,14,0.00
2013-10-16,65,44,30,32,26,21,80,53,24,30.06,29.96,13,2,13,0.00
2013-10-17,70,48,32,29,24,19,64,42,18,30.04,29.89,9,2,12,0.00
2013-10-18,69,48,31,27,21,17,64,39,17,30.07,29.90,16,2,16,0.00
2013-10-19,70,47,29,29,21,15,58,39,20,30.09,29.97,12,2,14,0.00
2013-10-20,74,51,33,29,22,18,58,36,17,29.99,29.80,11,2,11,0.00
2013-10-21,76,53,36,30,22,19,51,33,14,30.02,29.87,10,2,14,0.00
2013-10-22,79,52,36,31,23,18,48,36,16,30.13,29.99,12,2,12,0.00
2013-10-23,81,54,36,34,27,22,58,38,16,30.08,29.96,11,2,13,0.00
2013-10-24,80,55,39,36,28,22,52,37,20,30.06,29.97,14,2,14,0.00
2013-10-25,69,56,47,45,38,30,70,53,39,30.10,30.02,14,3,15,0.08
2013-10-26,77,55,41,48,39,34,77,57,29,30.18,30.09,8,2,10,0.08
2013-10-27,79,56,41,42,34,30,68,48,23,30.10,29.75,15,3,15,0.00
2013-10-28,74,61,51,31,26,21,39,27,18,29.78,29.67,15,4,24,0.00
2013-10-29,57,50,38,40,32,23,83,53,27,29.85,29.75,10,2,16,0.10
2013-10-30,49,40,36,38,34,29,85,78,64,29.91,29.82,9,1,12,0.06
2013-10-31,54,39,28,39,30,24,86,69,47,30.01,29.91,9,1,10,0.00
2013-11-1,67,44,27,38,29,22,82,59,31,30.12,30.01,14,1,14,0.00
2013-11-2,78,49,31,39,28,21,69,48,20,30.13,29.84,15,2,19,0.00
2013-11-3,70,54,40,31,25,20,54,34,20,29.85,29.66,13,4,17,0.00
2013-11-4,56,44,32,29,25,18,62,48,34,29.84,29.73,9,1,11,0.00
2013-11-5,54,41,28,24,17,7,63,40,23,30.13,29.80,18,3,18,0.00
2013-11-6,57,36,22,21,13,7,56,41,23,30.24,30.13,8,1,10,0.00
2013-11-7,70,43,29,28,20,13,59,42,19,30.27,30.05,15,2,15,0.00
2013-11-8,72,47,28,31,21,15,64,40,18,30.06,29.93,10,2,10,0.00
2013-11-9,72,48,31,28,20,15,56,35,16,30.09,29.98,8,1,9,0.00
2013-11-10,76,49,32,29,21,16,53,36,16,30.15,30.06,10,2,13,0.00
2013-11-11,70,48,33,29,22,17,54,38,20,30.19,30.10,12,2,13,0.00
2013-11-12,79,51,35,33,22,16,47,34,17,30.30,30.17,16,3,17,0.00
2013-11-13,62,47,35,32,27,20,62,46,33,30.22,29.99,20,4,22,0.00
2013-11-14,67,46,30,35,26,19,74,50,26,29.99,29.77,12,2,13,0.00
2013-11-15,62,45,35,40,29,19,83,56,28,29.77,29.53,17,3,17,0.06
2013-11-16,50,44,36,40,36,32,86,73,61,29.72,29.57,11,1,12,0.02
2013-11-17,67,46,35,40,33,27,80,63,35,30.04,29.72,10,1,10,0.00
2013-11-18,68,46,34,39,30,24,72,57,32,30.11,29.99,10,3,12,0.00
2013-11-19,56,44,35,36,31,26,74,62,46,29.99,29.80,9,1,9,0.00
2013-11-20,56,42,31,39,33,26,84,71,51,29.84,29.75,7,1,12,0.00
2013-11-21,56,45,41,44,39,37,86,78,59,29.99,29.82,12,3,12,0.00
2013-11-22,44,42,40,39,37,34,87,83,75,30.07,29.96,20,4,20,0.02
2013-11-23,49,42,36,36,34,29,82,74,61,30.07,29.97,22,9,29,0.02
2013-11-24,38,35,31,30,28,26,88,77,68,30.03,29.94,16,4,24,0.00
2013-11-25,60,40,30,38,30,24,89,70,40,30.14,29.92,11,2,11,0.00
2013-11-26,61,38,25,38,28,21,87,70,41,30.22,30.14,9,1,9,0.00
2013-11-27,56,39,28,38,30,23,82,69,48,30.19,30.02,11,2,11,0.00
2013-11-28,60,40,28,39,29,22,83,68,44,30.08,29.99,10,1,10,0.00
2013-11-29,61,40,30,40,30,24,84,70,40,30.19,30.08,6,0,6,0.00
2013-11-30,38,35,32,32,30,27,84,81,75,30.20,30.12,5,0,6,0.00
2013-12-1,35,33,32,30,29,27,87,83,80,30.22,30.12,6,0,7,0.00
2013-12-2,42,34,29,32,28,24,85,80,67,30.12,29.76,6,0,8,0.00
2013-12-3,59,44,27,35,27,22,85,57,30,29.75,29.44,19,4,19,0.00
2013-12-4,48,34,14,32,23,7,81,67,41,29.79,29.39,17,2,17,0.04
2013-12-5,30,18,8,20,11,1,78,72,64,29.79,29.69,7,1,10,0.04
2013-12-6,41,23,12,21,12,6,79,64,40,29.90,29.78,14,2,14,0.00
2013-12-7,35,29,20,24,15,7,83,55,42,29.82,29.57,14,4,19,0.00
2013-12-8,40,24,7,24,13,-2,82,64,37,29.84,29.58,12,2,13,0.00
2013-12-9,38,16,3,14,1,-6,68,54,34,30.19,29.84,12,2,16,0.00
2013-12-10,43,18,3,17,2,-7,67,53,32,30.21,30.06,9,1,9,0.00
2013-12-11,46,21,5,20,7,-2,73,57,34,30.26,30.12,8,1,8,0.00
2013-12-12,55,25,9,26,12,2,76,59,31,30.27,29.97,7,1,9,0.00
2013-12-13,44,29,17,22,16,10,76,59,40,30.01,29.87,9,2,13,0.00
2013-12-14,55,33,19,25,16,10,69,52,29,30.22,30.01,8,1,10,0.00
2013-12-15,48,30,16,26,17,9,75,60,41,30.23,30.15,14,2,16,0.00
2013-12-16,54,30,16,30,19,10,81,67,39,30.24,30.15,9,2,9,0.00
2013-12-20,41,41,41,33,33,33,74,74,74,29.63,29.63,0,0,20,0.00
2013-12-31,50,39,34,18,17,15,50,41,28,30.02,29.99,6,0,15,0.00
2014-1-1,61,36,20,29,18,12,74,51,26,30.12,29.98,12,1,16,0.00
2014-1-2,60,34,17,24,15,9,70,50,24,30.17,30.04,9,0,9,0.00